createdAt,value
2022-11-03T00:01:37.512Z,5.30
2022-11-03T00:04:06.761Z,3.80
2022-11-03T00:06:35.569Z,3.65
2022-11-03T00:09:06.834Z,4.05
2022-11-03T00:11:35.693Z,3.70
2022-11-03T00:14:05.895Z,3.53
2022-11-03T00:16:34.364Z,3.03
2022-11-03T00:19:02.715Z,4.50
2022-11-03T00:21:31.059Z,3.85
2022-11-03T00:23:59.383Z,3.08
2022-11-03T00:26:29.084Z,4.50
2022-11-03T00:29:02.598Z,4.57
2022-11-03T00:31:33.871Z,4.15
2022-11-03T00:34:03.205Z,4.07
2022-11-03T00:36:33.599Z,3.33
2022-11-03T00:39:01.878Z,3.85
2022-11-03T00:41:30.090Z,4.55
2022-11-03T00:43:58.416Z,5.00
2022-11-03T00:46:27.438Z,4.50
2022-11-03T00:48:57.042Z,4.20
2022-11-03T00:51:27.101Z,5.03
2022-11-03T00:53:57.373Z,5.78
2022-11-03T00:56:26.784Z,4.10
2022-11-03T00:58:56.215Z,3.80
2022-11-03T01:01:26.227Z,5.93
2022-11-03T01:04:15.734Z,3.08
2022-11-03T01:06:51.628Z,3.83
2022-11-03T01:09:20.917Z,3.10
2022-11-03T01:11:56.894Z,4.72
2022-11-03T01:14:26.083Z,2.83
2022-11-03T01:16:54.218Z,4.15
2022-11-03T01:19:23.877Z,3.08
2022-11-03T01:21:52.397Z,2.92
2022-11-03T01:24:21.036Z,4.00
2022-11-03T01:26:49.423Z,4.57
2022-11-03T01:29:17.782Z,3.15
2022-11-03T01:31:45.968Z,3.40
2022-11-03T01:34:16.614Z,3.25
2022-11-03T01:36:46.937Z,5.20
2022-11-03T01:39:16.837Z,3.15
2022-11-03T01:41:46.660Z,3.80
2022-11-03T01:44:43.530Z,2.78
2022-11-03T01:47:27.220Z,4.05
2022-11-03T01:50:00.022Z,5.03
2022-11-03T01:52:34.137Z,6.10
2022-11-03T01:55:05.759Z,3.53
2022-11-03T01:57:39.985Z,4.75
2022-11-03T02:00:09.596Z,4.15
2022-11-03T02:02:37.956Z,2.78
2022-11-03T02:05:07.595Z,2.78
2022-11-03T02:07:41.301Z,3.17
2022-11-03T02:10:10.844Z,2.90
2022-11-03T02:12:39.416Z,2.92
2022-11-03T02:15:10.176Z,3.22
2022-11-03T02:17:40.306Z,2.77
2022-11-03T02:20:13.662Z,4.53
2022-11-03T02:23:12.876Z,3.30
2022-11-03T02:25:47.456Z,3.60
2022-11-03T02:28:18.726Z,4.95
2022-11-03T02:30:51.646Z,3.60
2022-11-03T02:33:31.166Z,4.53
2022-11-03T02:36:06.395Z,3.60
2022-11-03T02:38:39.801Z,3.85
2022-11-03T02:41:10.417Z,3.95
2022-11-03T02:43:40.061Z,5.80
2022-11-03T02:46:08.976Z,4.28
2022-11-03T02:48:37.447Z,2.55
2022-11-03T02:51:06.083Z,4.90
2022-11-03T02:53:37.894Z,6.28
2022-11-03T02:56:12.380Z,5.13
2022-11-03T02:58:47.172Z,6.10
2022-11-03T03:01:20.589Z,4.30
2022-11-03T03:03:51.716Z,4.25
2022-11-03T03:06:24.951Z,4.53
2022-11-03T03:08:57.229Z,3.55
2022-11-03T03:11:38.806Z,4.85
2022-11-03T03:14:11.415Z,3.75
2022-11-03T03:16:46.725Z,5.22
2022-11-03T03:19:23.768Z,3.38
2022-11-03T03:21:55.737Z,3.55
2022-11-03T03:24:32.339Z,4.93
2022-11-03T03:27:05.155Z,4.38
2022-11-03T03:29:39.287Z,3.47
2022-11-03T03:32:10.985Z,3.72
2022-11-03T03:37:10.179Z,3.60
2022-11-03T03:39:41.394Z,2.83
2022-11-03T03:42:14.139Z,2.95
2022-11-03T03:44:44.439Z,3.40
2022-11-03T03:47:17.451Z,2.75
2022-11-03T03:49:45.614Z,3.28
2022-11-03T03:52:14.052Z,3.00
2022-11-03T03:54:42.223Z,4.10
2022-11-03T03:57:16.226Z,4.65
2022-11-03T03:59:44.523Z,2.63
2022-11-03T04:02:13.256Z,2.83
2022-11-03T04:04:41.637Z,4.38
2022-11-03T04:07:28.232Z,10.82
2022-11-03T04:09:56.416Z,3.60
2022-11-03T04:12:43.377Z,3.20
2022-11-03T04:15:31.403Z,2.83
2022-11-03T04:18:17.099Z,2.85
2022-11-03T04:21:02.480Z,3.13
2022-11-03T04:23:30.808Z,4.55
2022-11-03T04:26:00.132Z,4.35
2022-11-03T04:28:30.506Z,3.88
2022-11-03T04:30:59.729Z,4.05
2022-11-03T04:33:30.185Z,3.83
2022-11-03T04:36:00.479Z,4.65
2022-11-03T04:38:30.523Z,3.40
2022-11-03T04:40:59.826Z,2.92
2022-11-03T04:43:35.924Z,3.28
2022-11-03T04:46:04.744Z,3.60
2022-11-03T04:48:34.893Z,5.68
2022-11-03T04:51:12.182Z,3.60
2022-11-03T04:53:45.063Z,3.00
2022-11-03T04:56:18.773Z,4.00
2022-11-03T04:58:48.786Z,2.53
2022-11-03T05:01:24.235Z,2.80
2022-11-03T05:03:55.192Z,2.92
2022-11-03T05:06:25.177Z,3.72
2022-11-03T05:08:56.874Z,4.10
2022-11-03T05:14:01.712Z,4.45
2022-11-03T05:16:30.690Z,3.08
2022-11-03T05:18:59.195Z,3.45
2022-11-03T05:21:28.789Z,3.65
2022-11-03T05:24:03.948Z,4.13
2022-11-03T05:26:35.126Z,4.85
2022-11-03T05:29:12.002Z,3.90
2022-11-03T05:31:43.099Z,3.97
2022-11-03T05:34:29.444Z,3.30
2022-11-03T05:36:59.624Z,3.50
2022-11-03T05:39:31.423Z,3.58
2022-11-03T05:44:36.971Z,3.42
2022-11-03T05:47:09.977Z,2.95
2022-11-03T05:49:38.166Z,4.18
2022-11-03T05:52:13.845Z,3.85
2022-11-03T05:54:42.073Z,2.92
2022-11-03T05:57:12.881Z,3.22
2022-11-03T05:59:44.480Z,4.53
2022-11-03T06:02:29.686Z,5.05
2022-11-03T06:04:59.343Z,5.75
2022-11-03T06:07:31.136Z,4.57
2022-11-03T06:12:29.161Z,5.90
2022-11-03T06:14:58.715Z,5.10
2022-11-03T06:17:28.880Z,3.35
2022-11-03T06:19:59.905Z,3.40
2022-11-03T06:22:30.318Z,4.10
2022-11-03T06:25:02.957Z,3.78
2022-11-03T06:27:35.408Z,4.57
2022-11-03T06:30:20.860Z,4.43
2022-11-03T06:32:49.080Z,3.90
2022-11-03T06:35:17.964Z,2.83
2022-11-03T06:37:47.054Z,3.58
2022-11-03T06:40:46.035Z,4.55
2022-11-03T06:43:24.831Z,3.42
2022-11-03T06:45:57.501Z,5.75
2022-11-03T06:48:28.444Z,4.10
2022-11-03T06:50:57.851Z,3.58
2022-11-03T06:53:31.154Z,4.70
2022-11-03T06:56:00.099Z,2.95
2022-11-03T06:58:31.887Z,4.18
2022-11-03T07:03:35.314Z,3.75
2022-11-03T07:06:07.063Z,3.90
2022-11-03T07:11:12.296Z,3.40
2022-11-03T07:13:40.527Z,4.93
2022-11-03T07:16:18.893Z,4.13
2022-11-03T07:18:48.734Z,5.82
2022-11-03T07:21:30.141Z,5.32
2022-11-03T07:23:59.476Z,5.15
2022-11-03T07:26:28.159Z,4.15
2022-11-03T07:28:56.865Z,4.93
2022-11-03T07:31:27.218Z,3.83
2022-11-03T07:33:59.375Z,4.35
2022-11-03T07:36:29.557Z,5.55
2022-11-03T07:38:58.404Z,4.43
2022-11-03T07:41:33.992Z,4.80
2022-11-03T07:44:03.548Z,4.78
2022-11-03T07:46:33.152Z,4.70
2022-11-03T07:49:02.905Z,4.90
2022-11-03T07:51:33.324Z,6.40
2022-11-03T07:54:10.582Z,9.38
2022-11-03T07:56:43.442Z,4.60
2022-11-03T07:59:17.494Z,5.90
2022-11-03T08:01:50.501Z,5.43
2022-11-03T08:04:21.292Z,8.07
2022-11-03T08:06:49.783Z,7.95
2022-11-03T08:09:18.021Z,9.30
2022-11-03T08:11:46.955Z,9.80
2022-11-03T08:14:15.219Z,11.32
2022-11-03T08:16:43.505Z,9.88
2022-11-03T08:19:13.053Z,8.93
2022-11-03T08:21:41.258Z,9.45
2022-11-03T08:24:09.470Z,9.77
2022-11-03T08:26:37.601Z,9.38
2022-11-03T08:29:05.840Z,10.55
2022-11-03T08:31:34.038Z,10.88
2022-11-03T08:34:02.204Z,10.32
2022-11-03T08:36:32.141Z,12.38
2022-11-03T08:39:00.295Z,11.63
2022-11-03T08:41:28.471Z,11.70
2022-11-03T08:43:56.635Z,10.98
2022-11-03T08:46:24.869Z,11.52
2022-11-03T08:48:53.636Z,10.35
2022-11-03T08:51:21.801Z,9.38
2022-11-03T08:53:53.997Z,11.25
2022-11-03T08:56:22.917Z,9.75
2022-11-03T08:58:51.219Z,10.50
2022-11-03T09:01:19.472Z,12.63
2022-11-03T09:03:47.771Z,10.80
2022-11-03T09:06:16.058Z,10.25
2022-11-03T09:11:33.953Z,9.27
2022-11-03T09:14:02.120Z,11.52
2022-11-03T09:16:30.497Z,11.32
2022-11-03T09:18:58.729Z,10.57
2022-11-03T09:21:26.864Z,10.18
2022-11-03T09:23:55.210Z,10.63
2022-11-03T09:26:23.482Z,10.82
2022-11-03T09:28:53.053Z,8.93
2022-11-03T09:31:21.373Z,8.15
2022-11-03T09:33:49.511Z,8.55
2022-11-03T09:36:17.660Z,9.27
2022-11-03T09:38:45.860Z,9.85
2022-11-03T09:41:26.358Z,9.65
2022-11-03T09:43:58.699Z,9.50
2022-11-03T09:46:29.465Z,10.88
2022-11-03T09:48:58.084Z,10.80
2022-11-03T09:51:28.245Z,10.32
2022-11-03T09:53:58.791Z,10.88
2022-11-03T09:56:28.041Z,10.23
2022-11-03T09:58:57.682Z,9.73
2022-11-03T10:01:26.138Z,12.88
2022-11-03T10:03:58.406Z,10.20
2022-11-03T10:06:26.561Z,8.88
2022-11-03T10:08:54.857Z,10.40
2022-11-03T10:11:23.058Z,9.55
2022-11-03T10:13:55.107Z,10.30
2022-11-03T10:16:26.993Z,8.45
2022-11-03T10:18:55.304Z,11.27
2022-11-03T10:21:28.418Z,11.23
2022-11-03T10:23:56.646Z,10.13
2022-11-03T10:26:25.009Z,12.25
2022-11-03T10:29:00.764Z,11.05
2022-11-03T10:31:37.655Z,10.73
2022-11-03T10:34:07.075Z,9.45
2022-11-03T10:36:36.327Z,10.45
2022-11-03T10:39:30.481Z,12.15
2022-11-03T10:42:00.066Z,10.65
2022-11-03T10:44:29.813Z,10.55
2022-11-03T10:47:00.773Z,11.25
2022-11-03T10:49:30.667Z,12.70
2022-11-03T10:52:14.928Z,13.93
2022-11-03T10:54:43.089Z,11.65
2022-11-03T10:57:11.355Z,14.38
2022-11-03T10:59:40.619Z,12.93
2022-11-03T11:02:19.395Z,14.82
2022-11-03T11:04:49.979Z,12.80
2022-11-03T11:07:23.403Z,10.82
2022-11-03T11:09:51.856Z,12.60
2022-11-03T11:12:22.565Z,14.18
2022-11-03T11:14:56.719Z,13.03
2022-11-03T11:17:47.605Z,13.52
2022-11-03T11:20:31.210Z,11.98
2022-11-03T11:23:44.576Z,14.50
2022-11-03T11:26:18.833Z,12.07
2022-11-03T11:28:47.979Z,13.85
2022-11-03T11:31:31.006Z,16.13
2022-11-03T11:34:36.881Z,17.52
2022-11-03T11:37:37.108Z,15.52
2022-11-03T11:40:14.074Z,13.50
2022-11-03T11:43:16.852Z,14.50
2022-11-03T11:46:33.450Z,14.57
2022-11-03T11:49:18.268Z,11.88
2022-11-03T11:51:46.739Z,14.80
2022-11-03T11:54:20.354Z,12.38
2022-11-03T11:56:51.072Z,13.80
2022-11-03T11:59:25.158Z,13.77
2022-11-03T12:01:56.443Z,12.23
2022-11-03T12:04:27.717Z,15.15
2022-11-03T12:06:57.551Z,11.88
2022-11-03T12:09:28.756Z,12.63
2022-11-03T12:12:00.724Z,12.65
2022-11-03T12:14:38.503Z,13.23
2022-11-03T12:17:35.659Z,13.70
2022-11-03T12:20:36.972Z,11.88
2022-11-03T12:23:05.207Z,13.85
2022-11-03T12:25:37.336Z,11.15
2022-11-03T12:28:06.005Z,10.70
2022-11-03T12:30:39.422Z,12.57
2022-11-03T12:33:08.568Z,12.50
2022-11-03T12:35:37.036Z,11.45
2022-11-03T12:38:05.309Z,10.80
2022-11-03T12:40:33.449Z,11.52
2022-11-03T12:43:02.991Z,12.13
2022-11-03T12:45:31.152Z,10.57
2022-11-03T12:47:59.358Z,11.40
2022-11-03T12:50:27.529Z,12.50
2022-11-03T12:52:55.647Z,10.65
2022-11-03T12:55:24.035Z,14.20
2022-11-03T12:57:52.185Z,11.32
2022-11-03T13:00:21.868Z,11.75
2022-11-03T13:02:50.114Z,10.68
2022-11-03T13:05:18.414Z,11.95
2022-11-03T13:07:46.581Z,12.85
2022-11-03T13:10:14.792Z,12.88
2022-11-03T13:12:44.553Z,11.10
2022-11-03T13:15:15.852Z,10.82
2022-11-03T13:18:12.135Z,10.18
2022-11-03T13:20:33.876Z,10.45
2022-11-03T13:23:02.028Z,12.90
2022-11-03T13:25:30.515Z,11.93
2022-11-03T13:27:59.721Z,12.43
2022-11-03T13:30:28.912Z,12.20
2022-11-03T13:32:58.813Z,12.80
2022-11-03T13:35:27.002Z,11.70
2022-11-03T13:37:55.168Z,12.30
2022-11-03T13:43:11.978Z,14.93
2022-11-03T13:45:40.308Z,11.52
2022-11-03T13:49:04.106Z,12.48
2022-11-03T13:51:00.129Z,14.13
2022-11-03T13:56:21.184Z,17.98
2022-11-03T14:01:39.182Z,14.20
2022-11-03T14:06:58.820Z,17.38
2022-11-03T14:09:27.048Z,17.30
2022-11-03T14:12:12.371Z,16.90
2022-11-03T14:14:40.549Z,15.70
2022-11-03T14:17:08.696Z,16.23
2022-11-03T14:19:44.836Z,11.68
2022-11-03T14:22:15.672Z,14.35
2022-11-03T14:24:44.666Z,16.80
2022-11-03T14:27:13.162Z,15.60
2022-11-03T14:29:41.292Z,10.73
2022-11-03T14:32:09.438Z,13.65
2022-11-03T14:34:39.481Z,10.90
2022-11-03T14:37:08.954Z,13.40
2022-11-03T14:39:37.699Z,10.45
2022-11-03T14:42:05.275Z,11.60
2022-11-03T14:44:34.363Z,11.82
2022-11-03T14:47:03.563Z,14.30
2022-11-03T14:49:32.827Z,14.95
2022-11-03T14:52:03.357Z,13.05
2022-11-03T14:54:32.620Z,18.33
2022-11-03T14:57:01.175Z,14.82
2022-11-03T14:59:29.693Z,16.33
2022-11-03T15:01:59.201Z,17.20
2022-11-03T15:04:27.909Z,14.18
2022-11-03T15:06:56.079Z,15.75
2022-11-03T15:09:25.620Z,16.92
2022-11-03T15:11:53.807Z,17.02
2022-11-03T15:14:21.994Z,20.77
2022-11-03T15:16:50.177Z,18.05
2022-11-03T15:19:18.344Z,16.35
2022-11-03T15:21:46.495Z,14.27
2022-11-03T15:27:04.172Z,19.42
2022-11-03T15:29:32.340Z,19.35
2022-11-03T15:32:00.600Z,20.10
2022-11-03T15:34:29.777Z,20.13
2022-11-03T15:36:57.921Z,17.23
2022-11-03T15:39:26.107Z,18.13
2022-11-03T15:41:54.277Z,16.38
2022-11-03T15:44:23.824Z,25.10
2022-11-03T15:46:52.013Z,16.77
2022-11-03T15:49:20.158Z,13.82
2022-11-03T15:51:48.335Z,15.07
2022-11-03T15:54:16.496Z,16.15
2022-11-03T15:56:44.721Z,13.98
2022-11-03T15:59:12.895Z,13.68
2022-11-03T16:01:42.660Z,17.85
2022-11-03T16:04:11.049Z,14.77
2022-11-03T16:07:07.473Z,10.90
2022-11-03T16:09:27.395Z,13.32
2022-11-03T16:11:55.501Z,15.43
2022-11-03T16:14:23.658Z,10.73
2022-11-03T16:16:53.228Z,14.52
2022-11-03T16:19:21.365Z,16.77
2022-11-03T16:21:49.560Z,14.93
2022-11-03T16:24:17.704Z,15.32
2022-11-03T16:26:45.850Z,14.05
2022-11-03T16:29:14.007Z,13.93
2022-11-03T16:31:42.160Z,17.20
2022-11-03T16:34:11.740Z,18.67
2022-11-03T16:36:39.895Z,16.42
2022-11-03T16:39:08.204Z,20.30
2022-11-03T16:41:36.375Z,17.67
2022-11-03T16:44:04.865Z,19.40
2022-11-03T16:46:33.104Z,19.80
2022-11-03T16:49:01.316Z,14.05
2022-11-03T16:51:31.087Z,16.20
2022-11-03T16:53:59.777Z,19.27
2022-11-03T16:56:28.074Z,16.80
2022-11-03T16:58:56.295Z,20.15
2022-11-03T17:01:24.652Z,19.15
2022-11-03T17:03:54.029Z,20.42
2022-11-03T17:06:22.310Z,19.45
2022-11-03T17:08:53.564Z,23.10
2022-11-03T17:14:06.378Z,19.50
2022-11-03T17:16:34.647Z,19.98
2022-11-03T17:19:02.888Z,15.52
2022-11-03T17:21:31.918Z,21.25
2022-11-03T17:24:01.934Z,26.20
2022-11-03T17:26:42.932Z,19.52
2022-11-03T17:29:16.938Z,23.17
2022-11-03T17:31:45.276Z,19.77
2022-11-03T17:34:13.697Z,22.20
2022-11-03T17:36:42.317Z,17.90
2022-11-03T17:39:17.025Z,24.60
2022-11-03T17:41:45.317Z,22.35
2022-11-03T17:44:14.665Z,21.77
2022-11-03T17:46:42.823Z,18.15
2022-11-03T17:49:11.009Z,21.63
2022-11-03T17:51:43.290Z,20.20
2022-11-03T17:54:18.515Z,18.42
2022-11-03T17:56:48.205Z,17.48
2022-11-03T17:59:17.494Z,23.80
2022-11-03T18:01:46.076Z,25.70
2022-11-03T18:06:43.088Z,20.35
2022-11-03T18:09:12.690Z,21.05
2022-11-03T18:12:00.126Z,21.83
2022-11-03T18:14:29.784Z,23.08
2022-11-03T18:16:59.192Z,22.65
2022-11-03T18:19:27.570Z,24.08
2022-11-03T18:21:55.751Z,20.92
2022-11-03T18:24:26.866Z,22.15
2022-11-03T18:26:55.032Z,23.15
2022-11-03T18:29:23.233Z,22.42
2022-11-03T18:31:51.596Z,24.35
2022-11-03T18:34:23.074Z,23.63
2022-11-03T18:36:52.806Z,24.20
2022-11-03T18:39:26.733Z,20.98
2022-11-03T18:41:55.541Z,22.83
2022-11-03T18:44:28.278Z,23.27
2022-11-03T18:46:57.596Z,22.67
2022-11-03T18:49:27.471Z,23.50
2022-11-03T18:52:04.066Z,20.00
2022-11-03T18:54:35.636Z,22.65
2022-11-03T18:57:04.456Z,21.25
2022-11-03T18:59:37.052Z,19.58
2022-11-03T19:02:16.229Z,24.23
2022-11-03T19:04:45.201Z,19.98
2022-11-03T19:07:15.114Z,24.48
2022-11-03T19:09:45.625Z,22.20
2022-11-03T19:12:16.166Z,23.08
2022-11-03T19:14:46.451Z,22.52
2022-11-03T19:17:25.021Z,24.30
2022-11-03T19:19:54.244Z,22.00
2022-11-03T19:22:23.889Z,21.02
2022-11-03T19:24:53.497Z,22.38
2022-11-03T19:27:26.418Z,20.60
2022-11-03T19:29:56.609Z,21.15
2022-11-03T19:32:28.357Z,20.13
2022-11-03T19:35:00.141Z,21.70
2022-11-03T19:37:34.919Z,21.38
2022-11-03T19:40:08.926Z,19.17
2022-11-03T19:42:37.038Z,20.95
2022-11-03T19:45:07.534Z,19.08
2022-11-03T19:47:47.788Z,17.58
2022-11-03T19:50:22.886Z,20.33
2022-11-03T19:52:51.129Z,17.90
2022-11-03T19:55:21.393Z,21.83
2022-11-03T19:57:49.589Z,18.42
2022-11-03T20:00:20.005Z,19.40
2022-11-03T20:02:48.509Z,19.13
2022-11-03T20:05:17.017Z,26.95
2022-11-03T20:07:45.325Z,32.42
2022-11-03T20:10:19.064Z,31.05
2022-11-03T20:12:48.763Z,36.75
2022-11-03T20:15:19.225Z,31.88
2022-11-03T20:17:48.342Z,28.05
2022-11-03T20:20:18.024Z,24.58
2022-11-03T20:22:50.671Z,24.50
2022-11-03T20:25:22.057Z,27.15
2022-11-03T20:27:52.608Z,26.08
2022-11-03T20:30:22.276Z,25.95
2022-11-03T20:32:51.284Z,22.77
2022-11-03T20:35:24.113Z,27.05
2022-11-03T20:37:56.064Z,29.73
2022-11-03T20:42:57.817Z,25.13
2022-11-03T20:45:26.515Z,24.45
2022-11-03T20:47:54.713Z,22.63
2022-11-03T20:50:23.654Z,25.45
2022-11-03T20:52:52.190Z,22.27
2022-11-03T20:55:22.935Z,25.60
2022-11-03T20:57:52.643Z,24.83
2022-11-03T21:00:25.168Z,22.50
2022-11-03T21:02:54.304Z,26.42
2022-11-03T21:05:24.715Z,24.65
2022-11-03T21:07:53.276Z,25.13
2022-11-03T21:10:22.348Z,29.40
2022-11-03T21:12:50.973Z,24.98
2022-11-03T21:15:52.392Z,28.13
2022-11-03T21:18:46.833Z,26.63
2022-11-03T21:21:20.727Z,23.10
2022-11-03T21:23:49.283Z,28.90
2022-11-03T21:26:17.489Z,25.30
2022-11-03T21:28:45.664Z,22.85
2022-11-03T21:31:15.541Z,20.42
2022-11-03T21:33:43.745Z,22.73
2022-11-03T21:36:12.096Z,22.65
2022-11-03T21:38:40.934Z,26.83
2022-11-03T21:41:27.142Z,23.52
2022-11-03T21:44:12.601Z,21.73
2022-11-03T21:46:42.974Z,21.75
2022-11-03T21:49:25.775Z,23.33
2022-11-03T21:51:54.044Z,20.77
2022-11-03T21:54:22.384Z,21.48
2022-11-03T21:56:50.533Z,23.80
2022-11-03T21:59:18.791Z,24.70
2022-11-03T22:01:49.460Z,23.08
2022-11-03T22:04:17.951Z,20.77
2022-11-03T22:06:46.186Z,20.33
2022-11-03T22:09:14.776Z,21.38
2022-11-03T22:11:42.999Z,17.85
2022-11-03T22:14:12.799Z,16.60
2022-11-03T22:16:40.935Z,17.00
2022-11-03T22:19:30.560Z,17.13
2022-11-03T22:22:31.400Z,10.32
2022-11-03T22:25:17.258Z,8.38
2022-11-03T22:27:46.149Z,3.85
2022-11-03T22:30:31.878Z,5.72
2022-11-03T22:33:00.102Z,3.80
2022-11-03T22:35:47.202Z,4.00
2022-11-03T22:38:16.906Z,2.30
2022-11-03T22:41:05.892Z,3.15
2022-11-03T22:43:51.347Z,1.90
2022-11-03T22:46:20.529Z,1.40
2022-11-03T22:48:48.709Z,1.17
2022-11-03T22:51:18.280Z,1.00
2022-11-03T22:54:03.905Z,1.15
2022-11-03T22:56:32.186Z,0.43
2022-11-03T22:59:00.407Z,1.60
2022-11-03T23:01:29.500Z,1.33
2022-11-03T23:03:58.192Z,0.47
2022-11-03T23:06:29.597Z,0.80
2022-11-03T23:08:58.080Z,0.88
2022-11-03T23:11:29.273Z,0.73
2022-11-03T23:13:58.924Z,1.00
2022-11-03T23:16:28.849Z,0.38
2022-11-03T23:19:26.512Z,0.80
2022-11-03T23:21:56.232Z,0.70
2022-11-03T23:24:45.319Z,0.50
2022-11-03T23:27:14.978Z,0.30
2022-11-03T23:29:43.326Z,0.10
2022-11-03T23:32:11.654Z,0.90
2022-11-03T23:34:41.001Z,0.68
2022-11-03T23:37:10.664Z,2.30
2022-11-03T23:39:38.915Z,0.82
2022-11-03T23:42:07.655Z,0.17
2022-11-03T23:44:49.769Z,1.05
2022-11-03T23:47:35.525Z,0.50
2022-11-03T23:50:03.702Z,0.22
2022-11-03T23:52:33.276Z,0.65
2022-11-03T23:55:01.495Z,0.00
2022-11-03T23:57:46.880Z,0.43
